sensor_id;sensor_type;location;lat;lon;timestamp;P1;durP1;ratioP1;P2;durP2;ratioP2
44270;SDS011;29963;44.594;11.368;2023-03-22T00:00:52;27.08;;;23.33;;
44270;SDS011;29963;44.594;11.368;2023-03-22T00:03:19;26.00;;;23.08;;
44270;SDS011;29963;44.594;11.368;2023-03-22T00:05:46;27.85;;;24.83;;
44270;SDS011;29963;44.594;11.368;2023-03-22T00:08:14;30.08;;;26.90;;
44270;SDS011;29963;44.594;11.368;2023-03-22T00:10:40;34.20;;;26.90;;
44270;SDS011;29963;44.594;11.368;2023-03-22T00:13:06;31.42;;;27.40;;
44270;SDS011;29963;44.594;11.368;2023-03-22T00:15:34;32.92;;;29.45;;
44270;SDS011;29963;44.594;11.368;2023-03-22T00:18:00;37.63;;;31.67;;
44270;SDS011;29963;44.594;11.368;2023-03-22T00:20:27;36.30;;;28.63;;
44270;SDS011;29963;44.594;11.368;2023-03-22T00:22:58;33.05;;;29.27;;
44270;SDS011;29963;44.594;11.368;2023-03-22T00:25:24;33.35;;;28.60;;
44270;SDS011;29963;44.594;11.368;2023-03-22T00:27:49;31.65;;;28.30;;
44270;SDS011;29963;44.594;11.368;2023-03-22T00:30:15;36.45;;;29.08;;
44270;SDS011;29963;44.594;11.368;2023-03-22T00:32:41;30.88;;;26.92;;
44270;SDS011;29963;44.594;11.368;2023-03-22T00:35:07;31.98;;;28.25;;
44270;SDS011;29963;44.594;11.368;2023-03-22T00:37:34;30.90;;;26.65;;
44270;SDS011;29963;44.594;11.368;2023-03-22T00:40:05;28.98;;;25.85;;
44270;SDS011;29963;44.594;11.368;2023-03-22T00:42:34;32.10;;;24.70;;
44270;SDS011;29963;44.594;11.368;2023-03-22T00:45:03;35.90;;;28.15;;
44270;SDS011;29963;44.594;11.368;2023-03-22T00:47:30;34.13;;;27.58;;
44270;SDS011;29963;44.594;11.368;2023-03-22T00:49:56;33.15;;;26.80;;
44270;SDS011;29963;44.594;11.368;2023-03-22T00:52:22;30.83;;;26.95;;
44270;SDS011;29963;44.594;11.368;2023-03-22T00:54:47;30.33;;;26.48;;
44270;SDS011;29963;44.594;11.368;2023-03-22T00:57:13;29.92;;;26.73;;
44270;SDS011;29963;44.594;11.368;2023-03-22T00:59:39;32.00;;;27.25;;
44270;SDS011;29963;44.594;11.368;2023-03-22T01:02:06;36.88;;;30.60;;
44270;SDS011;29963;44.594;11.368;2023-03-22T01:04:33;27.77;;;24.15;;
44270;SDS011;29963;44.594;11.368;2023-03-22T01:07:00;29.70;;;26.48;;
44270;SDS011;29963;44.594;11.368;2023-03-22T01:09:28;30.67;;;27.38;;
44270;SDS011;29963;44.594;11.368;2023-03-22T01:11:57;30.45;;;27.25;;
44270;SDS011;29963;44.594;11.368;2023-03-22T01:14:24;32.45;;;27.77;;
44270;SDS011;29963;44.594;11.368;2023-03-22T01:16:51;28.20;;;25.20;;
44270;SDS011;29963;44.594;11.368;2023-03-22T01:19:21;29.23;;;26.10;;
44270;SDS011;29963;44.594;11.368;2023-03-22T01:21:53;30.05;;;25.88;;
44270;SDS011;29963;44.594;11.368;2023-03-22T01:24:19;32.17;;;27.45;;
44270;SDS011;29963;44.594;11.368;2023-03-22T01:26:45;29.58;;;26.02;;
44270;SDS011;29963;44.594;11.368;2023-03-22T01:29:11;27.60;;;24.63;;
44270;SDS011;29963;44.594;11.368;2023-03-22T01:31:37;28.05;;;23.92;;
44270;SDS011;29963;44.594;11.368;2023-03-22T01:34:02;31.05;;;25.92;;
44270;SDS011;29963;44.594;11.368;2023-03-22T01:36:28;29.73;;;25.63;;
44270;SDS011;29963;44.594;11.368;2023-03-22T01:38:54;31.00;;;25.00;;
44270;SDS011;29963;44.594;11.368;2023-03-22T01:41:20;28.80;;;25.42;;
44270;SDS011;29963;44.594;11.368;2023-03-22T01:46:30;29.50;;;23.83;;
44270;SDS011;29963;44.594;11.368;2023-03-22T01:49:00;25.40;;;22.75;;
44270;SDS011;29963;44.594;11.368;2023-03-22T01:51:29;24.95;;;21.65;;
44270;SDS011;29963;44.594;11.368;2023-03-22T01:53:58;26.10;;;23.33;;
44270;SDS011;29963;44.594;11.368;2023-03-22T01:56:29;26.25;;;23.55;;
44270;SDS011;29963;44.594;11.368;2023-03-22T01:58:56;25.92;;;23.25;;
44270;SDS011;29963;44.594;11.368;2023-03-22T02:01:22;27.77;;;23.02;;
44270;SDS011;29963;44.594;11.368;2023-03-22T02:06:27;27.23;;;22.48;;
44270;SDS011;29963;44.594;11.368;2023-03-22T02:08:54;23.80;;;21.33;;
44270;SDS011;29963;44.594;11.368;2023-03-22T02:11:32;24.02;;;21.60;;
44270;SDS011;29963;44.594;11.368;2023-03-22T02:19:50;25.23;;;21.63;;
44270;SDS011;29963;44.594;11.368;2023-03-22T02:33:22;28.40;;;21.70;;
44270;SDS011;29963;44.594;11.368;2023-03-22T02:41:19;23.77;;;20.85;;
44270;SDS011;29963;44.594;11.368;2023-03-22T02:44:12;24.98;;;20.52;;
44270;SDS011;29963;44.594;11.368;2023-03-22T02:52:35;32.80;;;27.40;;
44270;SDS011;29963;44.594;11.368;2023-03-22T02:55:28;37.10;;;29.10;;
44270;SDS011;29963;44.594;11.368;2023-03-22T02:57:59;33.70;;;28.92;;
44270;SDS011;29963;44.594;11.368;2023-03-22T03:00:30;24.02;;;21.52;;
44270;SDS011;29963;44.594;11.368;2023-03-22T03:02:58;27.02;;;19.52;;
44270;SDS011;29963;44.594;11.368;2023-03-22T03:05:35;22.73;;;20.30;;
44270;SDS011;29963;44.594;11.368;2023-03-22T03:08:06;21.52;;;17.20;;
44270;SDS011;29963;44.594;11.368;2023-03-22T03:10:35;19.65;;;17.55;;
44270;SDS011;29963;44.594;11.368;2023-03-22T03:13:02;19.92;;;17.83;;
44270;SDS011;29963;44.594;11.368;2023-03-22T03:15:35;20.75;;;18.55;;
44270;SDS011;29963;44.594;11.368;2023-03-22T03:21:16;22.67;;;18.40;;
44270;SDS011;29963;44.594;11.368;2023-03-22T03:24:15;19.90;;;17.83;;
44270;SDS011;29963;44.594;11.368;2023-03-22T03:26:55;19.60;;;17.50;;
44270;SDS011;29963;44.594;11.368;2023-03-22T03:29:48;18.52;;;16.63;;
44270;SDS011;29963;44.594;11.368;2023-03-22T03:35:11;19.20;;;15.95;;
44270;SDS011;29963;44.594;11.368;2023-03-22T03:40:28;18.60;;;15.82;;
44270;SDS011;29963;44.594;11.368;2023-03-22T03:42:56;20.48;;;16.70;;
44270;SDS011;29963;44.594;11.368;2023-03-22T03:45:26;17.45;;;15.55;;
44270;SDS011;29963;44.594;11.368;2023-03-22T03:47:52;18.15;;;16.17;;
44270;SDS011;29963;44.594;11.368;2023-03-22T03:50:23;18.60;;;16.45;;
44270;SDS011;29963;44.594;11.368;2023-03-22T03:52:51;19.42;;;17.30;;
44270;SDS011;29963;44.594;11.368;2023-03-22T03:55:17;26.23;;;20.23;;
44270;SDS011;29963;44.594;11.368;2023-03-22T03:57:43;24.08;;;21.30;;
44270;SDS011;29963;44.594;11.368;2023-03-22T04:00:09;21.15;;;18.92;;
44270;SDS011;29963;44.594;11.368;2023-03-22T04:02:38;19.73;;;17.70;;
44270;SDS011;29963;44.594;11.368;2023-03-22T04:05:07;18.33;;;16.02;;
44270;SDS011;29963;44.594;11.368;2023-03-22T04:07:33;20.67;;;17.15;;
44270;SDS011;29963;44.594;11.368;2023-03-22T04:09:59;20.33;;;16.67;;
44270;SDS011;29963;44.594;11.368;2023-03-22T04:12:25;18.77;;;16.77;;
44270;SDS011;29963;44.594;11.368;2023-03-22T04:14:53;20.88;;;17.20;;
44270;SDS011;29963;44.594;11.368;2023-03-22T04:17:20;17.75;;;15.85;;
44270;SDS011;29963;44.594;11.368;2023-03-22T04:19:46;19.42;;;17.42;;
44270;SDS011;29963;44.594;11.368;2023-03-22T04:22:11;18.17;;;16.33;;
44270;SDS011;29963;44.594;11.368;2023-03-22T04:24:39;18.00;;;16.10;;
44270;SDS011;29963;44.594;11.368;2023-03-22T04:27:05;17.42;;;15.48;;
44270;SDS011;29963;44.594;11.368;2023-03-22T04:29:32;22.80;;;17.38;;
44270;SDS011;29963;44.594;11.368;2023-03-22T04:32:00;17.23;;;15.48;;
44270;SDS011;29963;44.594;11.368;2023-03-22T04:34:26;20.90;;;17.85;;
44270;SDS011;29963;44.594;11.368;2023-03-22T04:36:52;20.77;;;17.48;;
44270;SDS011;29963;44.594;11.368;2023-03-22T04:39:18;20.05;;;17.02;;
44270;SDS011;29963;44.594;11.368;2023-03-22T04:41:44;15.65;;;14.00;;
44270;SDS011;29963;44.594;11.368;2023-03-22T04:44:10;14.73;;;13.20;;
44270;SDS011;29963;44.594;11.368;2023-03-22T04:46:38;15.07;;;13.45;;
44270;SDS011;29963;44.594;11.368;2023-03-22T04:49:04;16.40;;;14.30;;
44270;SDS011;29963;44.594;11.368;2023-03-22T04:51:30;17.17;;;13.25;;
44270;SDS011;29963;44.594;11.368;2023-03-22T04:53:56;15.38;;;13.75;;
44270;SDS011;29963;44.594;11.368;2023-03-22T04:56:22;18.67;;;13.35;;
44270;SDS011;29963;44.594;11.368;2023-03-22T04:58:48;15.05;;;13.52;;
44270;SDS011;29963;44.594;11.368;2023-03-22T05:01:14;15.15;;;13.57;;
44270;SDS011;29963;44.594;11.368;2023-03-22T05:03:40;14.10;;;12.70;;
44270;SDS011;29963;44.594;11.368;2023-03-22T05:06:11;14.63;;;12.27;;
44270;SDS011;29963;44.594;11.368;2023-03-22T05:08:37;15.32;;;13.73;;
44270;SDS011;29963;44.594;11.368;2023-03-22T05:11:04;14.40;;;13.02;;
44270;SDS011;29963;44.594;11.368;2023-03-22T05:13:32;15.25;;;13.00;;
44270;SDS011;29963;44.594;11.368;2023-03-22T05:15:58;14.98;;;13.48;;
44270;SDS011;29963;44.594;11.368;2023-03-22T05:18:23;14.48;;;13.05;;
44270;SDS011;29963;44.594;11.368;2023-03-22T05:20:50;16.35;;;14.68;;
44270;SDS011;29963;44.594;11.368;2023-03-22T05:23:19;14.68;;;13.20;;
44270;SDS011;29963;44.594;11.368;2023-03-22T05:25:46;15.55;;;14.02;;
44270;SDS011;29963;44.594;11.368;2023-03-22T05:28:12;14.02;;;12.60;;
44270;SDS011;29963;44.594;11.368;2023-03-22T05:30:40;15.88;;;12.77;;
44270;SDS011;29963;44.594;11.368;2023-03-22T05:33:06;15.45;;;12.18;;
44270;SDS011;29963;44.594;11.368;2023-03-22T05:35:32;15.40;;;13.23;;
44270;SDS011;29963;44.594;11.368;2023-03-22T05:37:59;13.98;;;12.10;;
44270;SDS011;29963;44.594;11.368;2023-03-22T05:40:25;13.15;;;11.90;;
44270;SDS011;29963;44.594;11.368;2023-03-22T05:42:51;15.93;;;12.52;;
44270;SDS011;29963;44.594;11.368;2023-03-22T05:45:21;12.65;;;11.35;;
44270;SDS011;29963;44.594;11.368;2023-03-22T05:47:46;13.82;;;12.43;;
44270;SDS011;29963;44.594;11.368;2023-03-22T05:50:15;11.73;;;10.63;;
44270;SDS011;29963;44.594;11.368;2023-03-22T05:52:42;13.43;;;12.05;;
44270;SDS011;29963;44.594;11.368;2023-03-22T05:55:08;11.63;;;10.52;;
44270;SDS011;29963;44.594;11.368;2023-03-22T05:57:36;12.00;;;10.88;;
44270;SDS011;29963;44.594;11.368;2023-03-22T06:00:06;10.88;;;9.88;;
44270;SDS011;29963;44.594;11.368;2023-03-22T06:02:37;21.55;;;12.32;;
44270;SDS011;29963;44.594;11.368;2023-03-22T06:05:03;9.95;;;8.90;;
44270;SDS011;29963;44.594;11.368;2023-03-22T06:07:29;16.58;;;12.93;;
44270;SDS011;29963;44.594;11.368;2023-03-22T06:09:55;11.48;;;10.25;;
44270;SDS011;29963;44.594;11.368;2023-03-22T06:12:21;12.93;;;11.45;;
44270;SDS011;29963;44.594;11.368;2023-03-22T06:14:48;10.88;;;9.85;;
44270;SDS011;29963;44.594;11.368;2023-03-22T06:17:14;12.95;;;11.18;;
44270;SDS011;29963;44.594;11.368;2023-03-22T06:19:40;11.70;;;10.27;;
44270;SDS011;29963;44.594;11.368;2023-03-22T06:22:05;13.20;;;10.80;;
44270;SDS011;29963;44.594;11.368;2023-03-22T06:24:31;10.95;;;8.98;;
44270;SDS011;29963;44.594;11.368;2023-03-22T06:26:57;13.02;;;9.43;;
44270;SDS011;29963;44.594;11.368;2023-03-22T06:29:22;10.80;;;8.85;;
44270;SDS011;29963;44.594;11.368;2023-03-22T06:31:51;12.63;;;10.20;;
44270;SDS011;29963;44.594;11.368;2023-03-22T06:34:17;10.57;;;9.35;;
44270;SDS011;29963;44.594;11.368;2023-03-22T06:36:42;10.10;;;9.20;;
44270;SDS011;29963;44.594;11.368;2023-03-22T06:39:08;10.68;;;9.57;;
44270;SDS011;29963;44.594;11.368;2023-03-22T06:41:34;10.52;;;9.40;;
44270;SDS011;29963;44.594;11.368;2023-03-22T06:43:59;11.00;;;9.90;;
44270;SDS011;29963;44.594;11.368;2023-03-22T06:46:26;11.77;;;10.45;;
44270;SDS011;29963;44.594;11.368;2023-03-22T06:48:52;11.20;;;10.10;;
44270;SDS011;29963;44.594;11.368;2023-03-22T06:51:17;14.25;;;11.48;;
44270;SDS011;29963;44.594;11.368;2023-03-22T06:53:43;13.30;;;10.43;;
44270;SDS011;29963;44.594;11.368;2023-03-22T06:56:09;10.65;;;9.40;;
44270;SDS011;29963;44.594;11.368;2023-03-22T06:58:35;12.88;;;10.38;;
44270;SDS011;29963;44.594;11.368;2023-03-22T07:01:00;16.27;;;10.32;;
44270;SDS011;29963;44.594;11.368;2023-03-22T07:03:26;13.50;;;10.88;;
44270;SDS011;29963;44.594;11.368;2023-03-22T07:05:51;10.48;;;9.48;;
44270;SDS011;29963;44.594;11.368;2023-03-22T07:08:17;11.98;;;10.27;;
44270;SDS011;29963;44.594;11.368;2023-03-22T07:10:47;12.73;;;11.43;;
44270;SDS011;29963;44.594;11.368;2023-03-22T07:13:13;11.35;;;10.15;;
44270;SDS011;29963;44.594;11.368;2023-03-22T07:15:39;9.93;;;8.98;;
44270;SDS011;29963;44.594;11.368;2023-03-22T07:18:05;9.40;;;8.50;;
44270;SDS011;29963;44.594;11.368;2023-03-22T07:20:32;11.25;;;10.05;;
44270;SDS011;29963;44.594;11.368;2023-03-22T07:23:00;11.77;;;9.48;;
44270;SDS011;29963;44.594;11.368;2023-03-22T07:25:26;11.75;;;10.55;;
44270;SDS011;29963;44.594;11.368;2023-03-22T07:27:51;11.82;;;10.73;;
44270;SDS011;29963;44.594;11.368;2023-03-22T07:30:17;11.32;;;10.23;;
44270;SDS011;29963;44.594;11.368;2023-03-22T07:32:43;15.15;;;12.00;;
44270;SDS011;29963;44.594;11.368;2023-03-22T07:35:08;15.02;;;12.43;;
44270;SDS011;29963;44.594;11.368;2023-03-22T07:37:34;14.18;;;12.50;;
44270;SDS011;29963;44.594;11.368;2023-03-22T07:40:00;12.73;;;11.25;;
44270;SDS011;29963;44.594;11.368;2023-03-22T07:42:25;13.48;;;12.20;;
44270;SDS011;29963;44.594;11.368;2023-03-22T07:44:51;14.93;;;13.30;;
44270;SDS011;29963;44.594;11.368;2023-03-22T07:47:17;14.75;;;13.25;;
44270;SDS011;29963;44.594;11.368;2023-03-22T07:49:43;16.73;;;12.77;;
44270;SDS011;29963;44.594;11.368;2023-03-22T07:52:08;14.88;;;12.77;;
44270;SDS011;29963;44.594;11.368;2023-03-22T07:54:34;17.85;;;15.07;;
44270;SDS011;29963;44.594;11.368;2023-03-22T07:57:00;22.45;;;13.75;;
44270;SDS011;29963;44.594;11.368;2023-03-22T07:59:26;15.52;;;13.88;;
44270;SDS011;29963;44.594;11.368;2023-03-22T08:01:54;14.80;;;13.32;;
44270;SDS011;29963;44.594;11.368;2023-03-22T08:04:20;16.85;;;14.95;;
44270;SDS011;29963;44.594;11.368;2023-03-22T08:06:46;18.40;;;14.98;;
44270;SDS011;29963;44.594;11.368;2023-03-22T08:09:12;19.90;;;15.18;;
44270;SDS011;29963;44.594;11.368;2023-03-22T08:11:38;18.75;;;16.73;;
44270;SDS011;29963;44.594;11.368;2023-03-22T08:14:04;17.08;;;15.45;;
44270;SDS011;29963;44.594;11.368;2023-03-22T08:16:30;20.88;;;18.05;;
44270;SDS011;29963;44.594;11.368;2023-03-22T08:18:56;20.20;;;17.48;;
44270;SDS011;29963;44.594;11.368;2023-03-22T08:21:22;22.48;;;20.08;;
44270;SDS011;29963;44.594;11.368;2023-03-22T08:23:48;22.92;;;20.17;;
44270;SDS011;29963;44.594;11.368;2023-03-22T08:26:16;24.67;;;19.95;;
44270;SDS011;29963;44.594;11.368;2023-03-22T08:28:42;22.52;;;19.38;;
44270;SDS011;29963;44.594;11.368;2023-03-22T08:31:09;20.50;;;18.42;;
44270;SDS011;29963;44.594;11.368;2023-03-22T08:33:36;23.10;;;19.40;;
44270;SDS011;29963;44.594;11.368;2023-03-22T08:36:03;23.38;;;20.27;;
44270;SDS011;29963;44.594;11.368;2023-03-22T08:38:33;23.23;;;20.75;;
44270;SDS011;29963;44.594;11.368;2023-03-22T08:40:58;24.85;;;21.45;;
44270;SDS011;29963;44.594;11.368;2023-03-22T08:43:24;24.20;;;21.50;;
44270;SDS011;29963;44.594;11.368;2023-03-22T08:45:49;24.98;;;22.23;;
44270;SDS011;29963;44.594;11.368;2023-03-22T08:48:15;25.63;;;22.95;;
44270;SDS011;29963;44.594;11.368;2023-03-22T08:50:40;27.98;;;22.20;;
44270;SDS011;29963;44.594;11.368;2023-03-22T08:53:06;31.10;;;26.13;;
44270;SDS011;29963;44.594;11.368;2023-03-22T08:55:32;25.92;;;22.35;;
44270;SDS011;29963;44.594;11.368;2023-03-22T08:58:01;30.02;;;25.67;;
44270;SDS011;29963;44.594;11.368;2023-03-22T09:00:28;28.58;;;25.45;;
44270;SDS011;29963;44.594;11.368;2023-03-22T09:02:54;26.90;;;24.02;;
44270;SDS011;29963;44.594;11.368;2023-03-22T09:05:20;28.83;;;25.80;;
44270;SDS011;29963;44.594;11.368;2023-03-22T09:07:50;27.52;;;24.67;;
44270;SDS011;29963;44.594;11.368;2023-03-22T09:10:16;31.33;;;27.63;;
44270;SDS011;29963;44.594;11.368;2023-03-22T09:12:42;29.95;;;26.15;;
44270;SDS011;29963;44.594;11.368;2023-03-22T09:15:08;27.45;;;24.60;;
44270;SDS011;29963;44.594;11.368;2023-03-22T09:17:33;29.92;;;26.73;;
44270;SDS011;29963;44.594;11.368;2023-03-22T09:20:00;31.88;;;28.50;;
44270;SDS011;29963;44.594;11.368;2023-03-22T09:22:25;32.78;;;27.42;;
44270;SDS011;29963;44.594;11.368;2023-03-22T09:24:51;32.28;;;28.35;;
44270;SDS011;29963;44.594;11.368;2023-03-22T09:27:17;33.53;;;28.52;;
44270;SDS011;29963;44.594;11.368;2023-03-22T09:29:43;30.05;;;26.80;;
44270;SDS011;29963;44.594;11.368;2023-03-22T09:32:08;32.47;;;28.95;;
44270;SDS011;29963;44.594;11.368;2023-03-22T09:34:34;28.95;;;25.92;;
44270;SDS011;29963;44.594;11.368;2023-03-22T09:37:00;33.25;;;26.70;;
44270;SDS011;29963;44.594;11.368;2023-03-22T09:39:27;27.98;;;25.05;;
44270;SDS011;29963;44.594;11.368;2023-03-22T09:41:56;30.00;;;25.58;;
44270;SDS011;29963;44.594;11.368;2023-03-22T09:44:28;30.17;;;26.90;;
44270;SDS011;29963;44.594;11.368;2023-03-22T09:46:55;27.13;;;23.27;;
44270;SDS011;29963;44.594;11.368;2023-03-22T09:49:25;31.73;;;28.10;;
44270;SDS011;29963;44.594;11.368;2023-03-22T09:51:57;34.40;;;30.27;;
44270;SDS011;29963;44.594;11.368;2023-03-22T09:54:39;32.28;;;28.80;;
44270;SDS011;29963;44.594;11.368;2023-03-22T09:57:08;31.10;;;27.35;;
44270;SDS011;29963;44.594;11.368;2023-03-22T10:02:47;36.28;;;28.80;;
44270;SDS011;29963;44.594;11.368;2023-03-22T10:10:55;26.88;;;23.38;;
44270;SDS011;29963;44.594;11.368;2023-03-22T10:13:31;28.35;;;25.05;;
44270;SDS011;29963;44.594;11.368;2023-03-22T10:16:03;27.38;;;24.45;;
44270;SDS011;29963;44.594;11.368;2023-03-22T10:18:36;37.80;;;28.55;;
44270;SDS011;29963;44.594;11.368;2023-03-22T10:21:05;30.85;;;27.30;;
44270;SDS011;29963;44.594;11.368;2023-03-22T10:26:01;33.58;;;28.38;;
44270;SDS011;29963;44.594;11.368;2023-03-22T10:28:39;38.15;;;29.35;;
44270;SDS011;29963;44.594;11.368;2023-03-22T10:31:10;37.65;;;28.67;;
44270;SDS011;29963;44.594;11.368;2023-03-22T10:33:40;31.40;;;28.05;;
44270;SDS011;29963;44.594;11.368;2023-03-22T10:36:16;30.77;;;27.40;;
44270;SDS011;29963;44.594;11.368;2023-03-22T10:38:46;26.05;;;23.08;;
44270;SDS011;29963;44.594;11.368;2023-03-22T10:41:17;27.95;;;22.55;;
44270;SDS011;29963;44.594;11.368;2023-03-22T10:43:47;27.45;;;21.48;;
44270;SDS011;29963;44.594;11.368;2023-03-22T10:46:18;24.77;;;21.42;;
44270;SDS011;29963;44.594;11.368;2023-03-22T10:48:46;26.42;;;23.70;;
44270;SDS011;29963;44.594;11.368;2023-03-22T10:51:37;22.85;;;20.30;;
44270;SDS011;29963;44.594;11.368;2023-03-22T10:54:13;23.75;;;19.90;;
44270;SDS011;29963;44.594;11.368;2023-03-22T10:56:41;19.60;;;16.77;;
44270;SDS011;29963;44.594;11.368;2023-03-22T10:59:06;20.50;;;18.35;;
44270;SDS011;29963;44.594;11.368;2023-03-22T11:01:35;17.95;;;16.20;;
44270;SDS011;29963;44.594;11.368;2023-03-22T11:04:14;18.90;;;16.35;;
44270;SDS011;29963;44.594;11.368;2023-03-22T11:06:52;16.50;;;14.50;;
44270;SDS011;29963;44.594;11.368;2023-03-22T11:09:19;16.92;;;14.07;;
44270;SDS011;29963;44.594;11.368;2023-03-22T11:11:53;16.60;;;13.15;;
44270;SDS011;29963;44.594;11.368;2023-03-22T11:19:47;17.80;;;15.93;;
44270;SDS011;29963;44.594;11.368;2023-03-22T11:25:05;16.55;;;14.85;;
44270;SDS011;29963;44.594;11.368;2023-03-22T11:27:54;16.35;;;14.68;;
44270;SDS011;29963;44.594;11.368;2023-03-22T11:30:29;16.45;;;13.50;;
44270;SDS011;29963;44.594;11.368;2023-03-22T11:35:34;13.38;;;11.98;;
44270;SDS011;29963;44.594;11.368;2023-03-22T11:38:01;14.27;;;12.20;;
44270;SDS011;29963;44.594;11.368;2023-03-22T11:40:30;12.80;;;10.40;;
44270;SDS011;29963;44.594;11.368;2023-03-22T11:43:05;16.58;;;13.18;;
44270;SDS011;29963;44.594;11.368;2023-03-22T11:45:42;13.48;;;9.18;;
44270;SDS011;29963;44.594;11.368;2023-03-22T11:48:14;11.00;;;9.82;;
44270;SDS011;29963;44.594;11.368;2023-03-22T11:50:42;10.45;;;9.40;;
44270;SDS011;29963;44.594;11.368;2023-03-22T11:53:18;14.05;;;12.63;;
44270;SDS011;29963;44.594;11.368;2023-03-22T11:55:48;12.18;;;10.90;;
44270;SDS011;29963;44.594;11.368;2023-03-22T12:00:46;13.88;;;12.02;;
44270;SDS011;29963;44.594;11.368;2023-03-22T12:03:16;11.02;;;9.93;;
44270;SDS011;29963;44.594;11.368;2023-03-22T12:05:46;8.60;;;7.72;;
44270;SDS011;29963;44.594;11.368;2023-03-22T12:10:41;13.45;;;8.98;;
44270;SDS011;29963;44.594;11.368;2023-03-22T12:13:56;9.65;;;8.73;;
44270;SDS011;29963;44.594;11.368;2023-03-22T12:16:16;10.95;;;9.57;;
44270;SDS011;29963;44.594;11.368;2023-03-22T12:18:51;13.68;;;11.10;;
44270;SDS011;29963;44.594;11.368;2023-03-22T12:21:33;12.95;;;10.88;;
44270;SDS011;29963;44.594;11.368;2023-03-22T12:24:00;8.88;;;7.97;;
44270;SDS011;29963;44.594;11.368;2023-03-22T12:26:27;9.20;;;8.07;;
44270;SDS011;29963;44.594;11.368;2023-03-22T12:28:58;13.68;;;9.52;;
44270;SDS011;29963;44.594;11.368;2023-03-22T12:31:34;10.55;;;8.45;;
44270;SDS011;29963;44.594;11.368;2023-03-22T12:34:17;9.30;;;7.78;;
44270;SDS011;29963;44.594;11.368;2023-03-22T12:36:52;9.35;;;7.05;;
44270;SDS011;29963;44.594;11.368;2023-03-22T12:41:56;7.90;;;7.13;;
44270;SDS011;29963;44.594;11.368;2023-03-22T12:44:27;10.25;;;8.50;;
44270;SDS011;29963;44.594;11.368;2023-03-22T12:47:00;8.38;;;7.53;;
44270;SDS011;29963;44.594;11.368;2023-03-22T12:52:35;15.90;;;11.13;;
44270;SDS011;29963;44.594;11.368;2023-03-22T12:55:06;15.70;;;7.03;;
44270;SDS011;29963;44.594;11.368;2023-03-22T12:57:34;5.93;;;5.20;;
44270;SDS011;29963;44.594;11.368;2023-03-22T13:00:04;6.82;;;5.10;;
44270;SDS011;29963;44.594;11.368;2023-03-22T13:02:37;6.30;;;5.70;;
44270;SDS011;29963;44.594;11.368;2023-03-22T13:05:10;7.47;;;5.82;;
44270;SDS011;29963;44.594;11.368;2023-03-22T13:07:48;5.78;;;4.88;;
44270;SDS011;29963;44.594;11.368;2023-03-22T13:15:40;5.75;;;4.07;;
44270;SDS011;29963;44.594;11.368;2023-03-22T13:23:33;5.55;;;3.63;;
44270;SDS011;29963;44.594;11.368;2023-03-22T13:25:59;3.58;;;3.03;;
44270;SDS011;29963;44.594;11.368;2023-03-22T13:28:27;3.38;;;3.08;;
44270;SDS011;29963;44.594;11.368;2023-03-22T13:30:55;4.40;;;2.95;;
44270;SDS011;29963;44.594;11.368;2023-03-22T13:33:29;3.85;;;3.08;;
44270;SDS011;29963;44.594;11.368;2023-03-22T13:36:20;3.22;;;2.63;;
44270;SDS011;29963;44.594;11.368;2023-03-22T13:38:52;3.78;;;2.97;;
44270;SDS011;29963;44.594;11.368;2023-03-22T13:43:49;4.72;;;3.05;;
44270;SDS011;29963;44.594;11.368;2023-03-22T13:51:21;4.15;;;3.25;;
44270;SDS011;29963;44.594;11.368;2023-03-22T13:56:52;3.83;;;2.78;;
44270;SDS011;29963;44.594;11.368;2023-03-22T14:10:17;3.47;;;3.17;;
44270;SDS011;29963;44.594;11.368;2023-03-22T14:15:37;5.97;;;3.45;;
44270;SDS011;29963;44.594;11.368;2023-03-22T14:18:19;5.68;;;2.75;;
44270;SDS011;29963;44.594;11.368;2023-03-22T14:20:52;3.30;;;2.95;;
44270;SDS011;29963;44.594;11.368;2023-03-22T14:23:23;4.65;;;3.08;;
44270;SDS011;29963;44.594;11.368;2023-03-22T14:25:53;5.70;;;2.95;;
44270;SDS011;29963;44.594;11.368;2023-03-22T14:28:34;4.18;;;3.65;;
44270;SDS011;29963;44.594;11.368;2023-03-22T14:31:01;4.38;;;2.65;;
44270;SDS011;29963;44.594;11.368;2023-03-22T14:33:28;5.50;;;3.30;;
44270;SDS011;29963;44.594;11.368;2023-03-22T14:35:56;4.63;;;3.30;;
44270;SDS011;29963;44.594;11.368;2023-03-22T14:38:26;3.35;;;3.05;;
44270;SDS011;29963;44.594;11.368;2023-03-22T14:43:43;5.30;;;3.00;;
44270;SDS011;29963;44.594;11.368;2023-03-22T14:48:52;4.00;;;3.15;;
44270;SDS011;29963;44.594;11.368;2023-03-22T14:51:21;6.28;;;3.20;;
44270;SDS011;29963;44.594;11.368;2023-03-22T14:53:52;3.33;;;2.75;;
44270;SDS011;29963;44.594;11.368;2023-03-22T14:56:21;5.45;;;3.30;;
44270;SDS011;29963;44.594;11.368;2023-03-22T14:58:56;3.78;;;3.42;;
44270;SDS011;29963;44.594;11.368;2023-03-22T15:01:24;3.88;;;2.60;;
44270;SDS011;29963;44.594;11.368;2023-03-22T15:03:54;4.43;;;2.92;;
44270;SDS011;29963;44.594;11.368;2023-03-22T15:06:27;2.72;;;2.42;;
44270;SDS011;29963;44.594;11.368;2023-03-22T15:08:54;2.53;;;2.30;;
44270;SDS011;29963;44.594;11.368;2023-03-22T15:11:28;2.17;;;1.95;;
44270;SDS011;29963;44.594;11.368;2023-03-22T15:13:55;2.95;;;2.05;;
44270;SDS011;29963;44.594;11.368;2023-03-22T15:16:24;1.98;;;1.40;;
44270;SDS011;29963;44.594;11.368;2023-03-22T15:18:56;1.95;;;1.55;;
44270;SDS011;29963;44.594;11.368;2023-03-22T15:21:23;3.72;;;1.88;;
44270;SDS011;29963;44.594;11.368;2023-03-22T15:23:51;1.83;;;1.55;;
44270;SDS011;29963;44.594;11.368;2023-03-22T15:26:22;2.00;;;1.77;;
44270;SDS011;29963;44.594;11.368;2023-03-22T15:28:52;1.60;;;1.30;;
44270;SDS011;29963;44.594;11.368;2023-03-22T15:31:23;2.60;;;1.42;;
44270;SDS011;29963;44.594;11.368;2023-03-22T15:33:56;1.85;;;1.23;;
44270;SDS011;29963;44.594;11.368;2023-03-22T15:36:26;2.17;;;1.40;;
44270;SDS011;29963;44.594;11.368;2023-03-22T15:39:00;3.15;;;1.23;;
44270;SDS011;29963;44.594;11.368;2023-03-22T15:41:34;1.20;;;1.00;;
44270;SDS011;29963;44.594;11.368;2023-03-22T15:44:19;0.90;;;0.90;;
44270;SDS011;29963;44.594;11.368;2023-03-22T15:54:46;1.35;;;0.80;;
44270;SDS011;29963;44.594;11.368;2023-03-22T16:02:58;2.33;;;1.92;;
44270;SDS011;29963;44.594;11.368;2023-03-22T16:05:30;1.83;;;1.55;;
44270;SDS011;29963;44.594;11.368;2023-03-22T16:07:57;2.08;;;1.20;;
44270;SDS011;29963;44.594;11.368;2023-03-22T16:10:24;3.00;;;1.55;;
44270;SDS011;29963;44.594;11.368;2023-03-22T16:12:50;2.67;;;1.30;;
44270;SDS011;29963;44.594;11.368;2023-03-22T16:15:20;1.60;;;1.13;;
44270;SDS011;29963;44.594;11.368;2023-03-22T16:17:48;2.08;;;1.65;;
44270;SDS011;29963;44.594;11.368;2023-03-22T16:20:15;1.95;;;1.67;;
44270;SDS011;29963;44.594;11.368;2023-03-22T16:22:42;2.45;;;1.65;;
44270;SDS011;29963;44.594;11.368;2023-03-22T16:27:41;4.03;;;1.83;;
44270;SDS011;29963;44.594;11.368;2023-03-22T16:30:07;1.88;;;1.63;;
44270;SDS011;29963;44.594;11.368;2023-03-22T16:32:33;2.45;;;1.60;;
44270;SDS011;29963;44.594;11.368;2023-03-22T16:34:58;3.17;;;1.63;;
44270;SDS011;29963;44.594;11.368;2023-03-22T16:37:24;1.75;;;1.33;;